Time;durP1;ratioP1;P1;durP2;ratioP2;P2;SDS_P1;SDS_P2;PMS_P1;PMS_P2;Temp;Humidity;BMP_temperature;BMP_pressure;BME280_temperature;BME280_humidity;BME280_pressure;Samples;Min_cycle;Max_cycle;Signal;HPM_P1;HPM_P2
2022/09/10 00:01:20;;;;;;;;;11.00;11.00;;;;;;;;5062222;28;45185;-77
2022/09/10 00:03:48;;;;;;;;;5.00;5.00;;;;;;;;5060904;28;46564;-76
2022/09/10 00:06:14;;;;;;;;;3.50;3.50;;;;;;;;5043593;28;45839;-77
2022/09/10 00:08:40;;;;;;;;;6.00;6.00;;;;;;;;5061017;28;45325;-79
2022/09/10 00:11:06;;;;;;;;;5.00;5.00;;;;;;;;5060847;28;45314;-77
2022/09/10 00:13:32;;;;;;;;;7.00;7.00;;;;;;;;5060319;28;45747;-74
2022/09/10 00:16:00;;;;;;;;;5.25;5.25;;;;;;;;5059678;28;45370;-77
2022/09/10 00:18:25;;;;;;;;;4.00;4.00;;;;;;;;5061506;28;44828;-76
2022/09/10 00:20:52;;;;;;;;;3.00;3.00;;;;;;;;5041264;28;45463;-75
2022/09/10 00:23:19;;;;;;;;;4.75;4.75;;;;;;;;5063280;28;45695;-72
2022/09/10 00:25:44;;;;;;;;;7.25;7.25;;;;;;;;5061052;28;45379;-74
2022/09/10 00:28:10;;;;;;;;;7.75;7.75;;;;;;;;5042170;28;45457;-72
2022/09/10 00:30:41;;;;;;;;;3.25;3.25;;;;;;;;5061129;28;45407;-70
2022/09/10 00:33:07;;;;;;;;;4.00;4.00;;;;;;;;5059458;28;45403;-79
2022/09/10 00:35:33;;;;;;;;;2.00;2.00;;;;;;;;5059463;28;45443;-79
2022/09/10 00:37:58;;;;;;;;;5.00;4.00;;;;;;;;5060405;28;45340;-71
2022/09/10 00:40:24;;;;;;;;;3.75;3.75;;;;;;;;5062947;28;45361;-70
2022/09/10 00:42:49;;;;;;;;;7.00;7.00;;;;;;;;5062152;28;45552;-79
2022/09/10 00:45:16;;;;;;;;;5.00;3.50;;;;;;;;5060568;28;45423;-73
2022/09/10 00:47:45;;;;;;;;;4.25;4.25;;;;;;;;5060838;28;45302;-79
2022/09/10 00:50:25;;;;;;;;;3.75;3.75;;;;;;;;5060492;28;45660;-75
2022/09/10 00:52:52;;;;;;;;;4.25;4.25;;;;;;;;5060844;28;45564;-73
2022/09/10 00:55:17;;;;;;;;;2.00;2.00;;;;;;;;5064327;28;45258;-80
2022/09/10 00:57:45;;;;;;;;;3.00;3.00;;;;;;;;5068684;28;45229;-75
2022/09/10 01:00:12;;;;;;;;;4.50;4.50;;;;;;;;5072511;28;44801;-72
2022/09/10 01:02:37;;;;;;;;;3.50;3.50;;;;;;;;5071813;28;46157;-80
2022/09/10 01:05:03;;;;;;;;;4.50;4.50;;;;;;;;5047543;28;45458;-86
2022/09/10 01:07:29;;;;;;;;;4.00;4.00;;;;;;;;5064625;28;45447;-72
2022/09/10 01:09:58;;;;;;;;;6.00;6.00;;;;;;;;5061504;28;45336;-79
2022/09/10 01:12:42;;;;;;;;;4.75;4.75;;;;;;;;5060439;28;45334;-76
2022/09/10 01:15:19;;;;;;;;;3.00;3.00;;;;;;;;5059450;28;45162;-72
2022/09/10 01:17:56;;;;;;;;;3.50;3.50;;;;;;;;5060177;28;45427;-72
2022/09/10 01:20:24;;;;;;;;;4.75;4.50;;;;;;;;5059918;28;45277;-74
2022/09/10 01:23:05;;;;;;;;;3.50;3.50;;;;;;;;5058784;28;45501;-72
2022/09/10 01:25:44;;;;;;;;;2.00;2.00;;;;;;;;5063443;28;45233;-71
2022/09/10 01:28:29;;;;;;;;;3.00;3.00;;;;;;;;5067376;28;45371;-76
2022/09/10 01:30:57;;;;;;;;;3.00;3.00;;;;;;;;5066174;28;45387;-74
2022/09/10 01:33:31;;;;;;;;;4.00;4.00;;;;;;;;5044841;28;46333;-73
2022/09/10 01:35:58;;;;;;;;;2.00;2.00;;;;;;;;5062831;28;45300;-71
2022/09/10 01:38:30;;;;;;;;;3.00;3.00;;;;;;;;5059198;28;45169;-74
2022/09/10 01:40:56;;;;;;;;;4.75;4.75;;;;;;;;5059423;28;45497;-74
2022/09/10 01:43:22;;;;;;;;;4.50;4.50;;;;;;;;5058537;28;45416;-72
2022/09/10 01:45:47;;;;;;;;;4.00;4.00;;;;;;;;5057975;28;45188;-71
2022/09/10 01:48:19;;;;;;;;;3.00;3.00;;;;;;;;5057926;28;45410;-74
2022/09/10 01:50:56;;;;;;;;;3.00;3.00;;;;;;;;5059766;28;45563;-76
2022/09/10 01:53:21;;;;;;;;;6.75;4.75;;;;;;;;5059128;28;45529;-75
2022/09/10 01:56:02;;;;;;;;;2.00;2.00;;;;;;;;5059842;28;45306;-76
2022/09/10 01:58:41;;;;;;;;;4.00;4.00;;;;;;;;5058695;28;45324;-73
2022/09/10 02:01:16;;;;;;;;;4.00;4.00;;;;;;;;5059695;28;46010;-86
2022/09/10 02:03:43;;;;;;;;;5.25;5.25;;;;;;;;5061494;28;46419;-82
2022/09/10 02:06:11;;;;;;;;;1.75;1.75;;;;;;;;5061751;28;45251;-80
2022/09/10 02:08:38;;;;;;;;;3.00;3.00;;;;;;;;5063021;28;45367;-71
2022/09/10 02:11:08;;;;;;;;;2.75;2.75;;;;;;;;5040094;28;45403;-77
2022/09/10 02:13:33;;;;;;;;;3.50;3.50;;;;;;;;5059170;28;45420;-73
2022/09/10 02:16:01;;;;;;;;;3.00;3.00;;;;;;;;5059475;28;45312;-71
2022/09/10 02:18:27;;;;;;;;;3.00;3.00;;;;;;;;5044204;28;45396;-70
2022/09/10 02:20:54;;;;;;;;;3.50;3.50;;;;;;;;5065645;28;45237;-71
2022/09/10 02:23:22;;;;;;;;;4.00;4.00;;;;;;;;5060711;28;45433;-78
2022/09/10 02:25:49;;;;;;;;;2.75;2.75;;;;;;;;5058071;28;45351;-73
2022/09/10 02:28:15;;;;;;;;;4.00;4.00;;;;;;;;5057634;28;45413;-78
2022/09/10 02:30:40;;;;;;;;;3.00;3.00;;;;;;;;5062987;28;45359;-71
2022/09/10 02:33:05;;;;;;;;;3.50;3.50;;;;;;;;5063148;28;46124;-70
2022/09/10 02:35:31;;;;;;;;;3.75;3.75;;;;;;;;5062161;28;45325;-74
2022/09/10 02:37:57;;;;;;;;;2.75;2.75;;;;;;;;5080152;27;45568;-69
2022/09/10 02:40:22;;;;;;;;;4.25;3.25;;;;;;;;5093882;27;46870;-69
2022/09/10 02:42:47;;;;;;;;;2.25;2.25;;;;;;;;5096317;27;46170;-68
2022/09/10 02:45:13;;;;;;;;;4.00;4.00;;;;;;;;5093499;27;45614;-77
2022/09/10 02:47:38;;;;;;;;;4.00;4.00;;;;;;;;5077167;27;45488;-74
2022/09/10 02:50:04;;;;;;;;;3.00;3.00;;;;;;;;5074109;28;45532;-76
2022/09/10 02:52:29;;;;;;;;;3.75;3.75;;;;;;;;5074051;28;46116;-76
2022/09/10 02:54:55;;;;;;;;;4.25;4.25;;;;;;;;5056139;28;45582;-75
2022/09/10 02:57:20;;;;;;;;;3.00;3.00;;;;;;;;5074281;28;45473;-74
2022/09/10 02:59:45;;;;;;;;;4.25;4.25;;;;;;;;5074183;28;45540;-72
2022/09/10 03:02:10;;;;;;;;;3.50;3.50;;;;;;;;5073644;28;45942;-73
2022/09/10 03:04:36;;;;;;;;;4.00;4.00;;;;;;;;5091298;27;45581;-74
2022/09/10 03:07:01;;;;;;;;;3.50;3.50;;;;;;;;5076198;28;45325;-74
2022/09/10 03:09:27;;;;;;;;;4.75;4.75;;;;;;;;5076492;28;45284;-76
2022/09/10 03:11:53;;;;;;;;;4.00;4.00;;;;;;;;5075932;28;45397;-75
2022/09/10 03:14:21;;;;;;;;;3.00;3.00;;;;;;;;5075497;28;45350;-76
2022/09/10 03:16:46;;;;;;;;;3.50;3.50;;;;;;;;5075859;28;45421;-74
2022/09/10 03:19:12;;;;;;;;;3.00;3.00;;;;;;;;5077072;28;45169;-75
2022/09/10 03:21:40;;;;;;;;;2.50;2.50;;;;;;;;5093173;27;47651;-73
2022/09/10 03:24:05;;;;;;;;;4.50;4.50;;;;;;;;5077554;28;45352;-75
2022/09/10 03:26:31;;;;;;;;;3.75;3.75;;;;;;;;5076113;28;45154;-75
2022/09/10 03:28:56;;;;;;;;;3.75;3.75;;;;;;;;5076167;28;45525;-76
2022/09/10 03:31:21;;;;;;;;;3.00;3.00;;;;;;;;5075574;28;45441;-74
2022/09/10 03:33:46;;;;;;;;;3.25;3.25;;;;;;;;5075773;28;45189;-73
2022/09/10 03:36:15;;;;;;;;;4.00;4.00;;;;;;;;5075435;28;45241;-73
2022/09/10 03:38:40;;;;;;;;;4.00;4.00;;;;;;;;5076287;28;45516;-74
2022/09/10 03:41:05;;;;;;;;;3.00;3.00;;;;;;;;5075177;28;45327;-75
2022/09/10 03:43:31;;;;;;;;;4.00;4.00;;;;;;;;5075242;28;45425;-75
2022/09/10 03:45:56;;;;;;;;;3.75;3.50;;;;;;;;5061310;28;45480;-74
2022/09/10 03:48:21;;;;;;;;;3.00;3.00;;;;;;;;5054051;28;45561;-73
2022/09/10 03:50:48;;;;;;;;;4.00;4.00;;;;;;;;5054340;28;45501;-75
2022/09/10 03:53:14;;;;;;;;;2.50;2.50;;;;;;;;5054931;28;45434;-73
2022/09/10 03:55:41;;;;;;;;;1.00;1.00;;;;;;;;5054984;28;45351;-73
2022/09/10 03:58:07;;;;;;;;;4.75;4.00;;;;;;;;5056260;28;45154;-74
2022/09/10 04:00:32;;;;;;;;;3.50;3.50;;;;;;;;5055331;28;45640;-76
2022/09/10 04:02:59;;;;;;;;;4.25;3.25;;;;;;;;5058235;28;45177;-75
2022/09/10 04:05:26;;;;;;;;;3.50;3.50;;;;;;;;5059009;28;45276;-79
2022/09/10 04:07:52;;;;;;;;;3.25;3.25;;;;;;;;5055284;28;45477;-74
2022/09/10 04:10:19;;;;;;;;;2.50;2.50;;;;;;;;5055536;28;45443;-74
2022/09/10 04:12:44;;;;;;;;;4.00;4.00;;;;;;;;5054691;28;45489;-73
2022/09/10 04:15:10;;;;;;;;;4.25;4.25;;;;;;;;5036614;28;45328;-74
2022/09/10 04:17:36;;;;;;;;;4.00;4.00;;;;;;;;5054062;28;45239;-76
2022/09/10 04:20:01;;;;;;;;;3.00;3.00;;;;;;;;5057101;28;46160;-73
2022/09/10 04:22:27;;;;;;;;;3.50;3.00;;;;;;;;5056455;28;45311;-74
2022/09/10 04:24:52;;;;;;;;;4.00;4.00;;;;;;;;5036819;28;45410;-74
2022/09/10 04:27:17;;;;;;;;;3.50;3.50;;;;;;;;5055037;28;45532;-74
2022/09/10 04:29:42;;;;;;;;;3.00;3.00;;;;;;;;5054195;28;45227;-75
2022/09/10 04:32:08;;;;;;;;;2.75;2.75;;;;;;;;5054349;28;45476;-75
2022/09/10 04:34:34;;;;;;;;;3.75;3.75;;;;;;;;5054701;28;45283;-76
2022/09/10 04:36:59;;;;;;;;;3.50;3.50;;;;;;;;5054720;28;45465;-74
2022/09/10 04:39:24;;;;;;;;;2.75;2.75;;;;;;;;5056702;28;45358;-73
2022/09/10 04:41:49;;;;;;;;;1.00;1.00;;;;;;;;5039195;28;45287;-74
2022/09/10 04:44:18;;;;;;;;;3.00;3.00;;;;;;;;5058827;28;45330;-75
2022/09/10 04:46:44;;;;;;;;;3.75;3.75;;;;;;;;5057919;28;45468;-74
2022/09/10 04:49:09;;;;;;;;;2.00;2.00;;;;;;;;5057526;28;46386;-76
2022/09/10 04:51:35;;;;;;;;;4.00;4.00;;;;;;;;5057222;28;45463;-75
2022/09/10 04:54:00;;;;;;;;;2.00;2.00;;;;;;;;5058036;28;45304;-75
2022/09/10 04:56:26;;;;;;;;;4.75;4.75;;;;;;;;5058060;28;45702;-76
2022/09/10 04:58:52;;;;;;;;;3.25;3.25;;;;;;;;5057702;28;46281;-73
2022/09/10 05:01:17;;;;;;;;;3.00;3.00;;;;;;;;5057536;28;45371;-74
2022/09/10 05:03:42;;;;;;;;;5.00;5.00;;;;;;;;5039362;28;45412;-74
2022/09/10 05:06:07;;;;;;;;;4.50;4.50;;;;;;;;5057649;28;45645;-76
2022/09/10 05:08:33;;;;;;;;;4.50;4.50;;;;;;;;5057871;28;46321;-74
2022/09/10 05:11:01;;;;;;;;;5.00;5.00;;;;;;;;5061137;28;45371;-74
2022/09/10 05:13:27;;;;;;;;;3.50;3.50;;;;;;;;5057955;28;45463;-76
2022/09/10 05:15:53;;;;;;;;;3.00;2.75;;;;;;;;5057750;28;45340;-74
2022/09/10 05:18:18;;;;;;;;;3.00;3.00;;;;;;;;5038806;28;48376;-73
2022/09/10 05:20:43;;;;;;;;;4.00;4.00;;;;;;;;5057218;28;45306;-77
2022/09/10 05:23:09;;;;;;;;;3.50;3.50;;;;;;;;5057665;28;45379;-74
2022/09/10 05:25:34;;;;;;;;;2.50;2.50;;;;;;;;5041076;28;45586;-76
2022/09/10 05:28:00;;;;;;;;;3.75;3.75;;;;;;;;5059254;28;45488;-76
2022/09/10 05:30:25;;;;;;;;;2.75;2.75;;;;;;;;5059274;28;45359;-76
2022/09/10 05:32:52;;;;;;;;;5.00;5.00;;;;;;;;5058913;28;45331;-77
2022/09/10 05:35:17;;;;;;;;;5.00;5.00;;;;;;;;5062230;28;45556;-77
2022/09/10 05:37:42;;;;;;;;;3.50;3.50;;;;;;;;5063655;28;46123;-75
2022/09/10 05:40:08;;;;;;;;;2.50;2.50;;;;;;;;5062996;28;45176;-72
2022/09/10 05:42:34;;;;;;;;;4.00;4.00;;;;;;;;5064477;28;45285;-78
2022/09/10 05:44:59;;;;;;;;;1.50;1.50;;;;;;;;5062399;28;45230;-79
2022/09/10 05:47:25;;;;;;;;;2.00;2.00;;;;;;;;5041016;28;46966;-77
2022/09/10 05:49:50;;;;;;;;;3.25;3.25;;;;;;;;5059217;28;45300;-77
2022/09/10 05:52:16;;;;;;;;;2.00;2.00;;;;;;;;5040338;28;45526;-76
2022/09/10 05:54:41;;;;;;;;;3.00;3.00;;;;;;;;5057157;28;45622;-73
2022/09/10 05:57:06;;;;;;;;;3.75;3.75;;;;;;;;5056843;28;46379;-74
2022/09/10 05:59:33;;;;;;;;;4.00;3.50;;;;;;;;5057194;28;45419;-73
2022/09/10 06:01:58;;;;;;;;;3.50;3.50;;;;;;;;5038375;28;45327;-73
2022/09/10 06:04:23;;;;;;;;;3.00;3.00;;;;;;;;5039500;28;45545;-73
2022/09/10 06:06:49;;;;;;;;;3.25;3.25;;;;;;;;5058397;28;46307;-74
2022/09/10 06:09:14;;;;;;;;;3.00;3.00;;;;;;;;5059521;28;45323;-76
2022/09/10 06:11:40;;;;;;;;;4.50;4.50;;;;;;;;5061373;28;45365;-77
2022/09/10 06:14:06;;;;;;;;;3.75;3.75;;;;;;;;5059066;28;45326;-74
2022/09/10 06:16:32;;;;;;;;;4.25;4.25;;;;;;;;5057162;28;45263;-76
2022/09/10 06:18:58;;;;;;;;;4.25;4.25;;;;;;;;5056722;28;45300;-77
2022/09/10 06:21:23;;;;;;;;;4.00;4.00;;;;;;;;5059992;28;45454;-79
2022/09/10 06:23:51;;;;;;;;;5.50;5.50;;;;;;;;5064996;28;44804;-78
2022/09/10 06:26:17;;;;;;;;;5.50;5.50;;;;;;;;5056945;28;46188;-74
2022/09/10 06:28:43;;;;;;;;;2.75;2.75;;;;;;;;5056046;28;45291;-75
2022/09/10 06:31:10;;;;;;;;;2.25;2.25;;;;;;;;5056408;28;45374;-78
2022/09/10 06:33:36;;;;;;;;;3.75;3.75;;;;;;;;5056473;28;45414;-75
2022/09/10 06:36:02;;;;;;;;;1.25;1.25;;;;;;;;5055678;28;46302;-75
2022/09/10 06:38:28;;;;;;;;;5.25;5.25;;;;;;;;5055797;28;45760;-73
2022/09/10 06:40:54;;;;;;;;;5.00;4.50;;;;;;;;5055598;28;45381;-74
2022/09/10 06:43:21;;;;;;;;;5.00;3.50;;;;;;;;5055974;28;45235;-75
2022/09/10 06:45:46;;;;;;;;;2.75;2.75;;;;;;;;5055527;28;46269;-75
2022/09/10 06:48:11;;;;;;;;;4.00;4.00;;;;;;;;5055722;28;45465;-75
2022/09/10 06:50:36;;;;;;;;;2.75;2.75;;;;;;;;5056429;28;45276;-73
2022/09/10 06:53:02;;;;;;;;;5.50;5.50;;;;;;;;5056298;28;45425;-77
2022/09/10 06:55:27;;;;;;;;;3.50;3.50;;;;;;;;5056312;28;45409;-74
2022/09/10 06:57:52;;;;;;;;;6.00;6.00;;;;;;;;5057053;28;45327;-74
2022/09/10 07:00:17;;;;;;;;;7.50;7.50;;;;;;;;5037451;28;45392;-74
2022/09/10 07:02:43;;;;;;;;;2.75;2.75;;;;;;;;5054995;28;45413;-74
2022/09/10 07:05:08;;;;;;;;;2.75;2.75;;;;;;;;5056332;28;45481;-76
2022/09/10 07:07:33;;;;;;;;;6.25;6.25;;;;;;;;5037859;28;45386;-75
2022/09/10 07:09:58;;;;;;;;;1.25;1.25;;;;;;;;5039333;28;45283;-73
2022/09/10 07:12:24;;;;;;;;;4.50;4.50;;;;;;;;5070975;28;45293;-73
2022/09/10 07:14:49;;;;;;;;;4.00;4.00;;;;;;;;5052662;28;46840;-76
2022/09/10 07:17:14;;;;;;;;;2.00;2.00;;;;;;;;5062218;28;45426;-73
2022/09/10 07:19:39;;;;;;;;;4.75;4.75;;;;;;;;5037524;28;45293;-75
2022/09/10 07:22:06;;;;;;;;;4.25;3.50;;;;;;;;5037751;28;45196;-74
2022/09/10 07:24:32;;;;;;;;;3.00;3.00;;;;;;;;5054974;28;45183;-73
2022/09/10 07:26:57;;;;;;;;;3.00;3.00;;;;;;;;5055003;28;45303;-73
2022/09/10 07:29:22;;;;;;;;;4.75;4.75;;;;;;;;5055674;28;45406;-73
2022/09/10 07:31:48;;;;;;;;;8.50;8.50;;;;;;;;5055402;28;45597;-74
2022/09/10 07:34:13;;;;;;;;;5.50;5.50;;;;;;;;5056132;28;46100;-74
2022/09/10 07:36:38;;;;;;;;;5.75;5.75;;;;;;;;5056423;28;45268;-72
2022/09/10 07:39:04;;;;;;;;;5.25;5.25;;;;;;;;5055286;28;45237;-73
2022/09/10 07:41:29;;;;;;;;;4.00;3.75;;;;;;;;5055558;28;45663;-76
2022/09/10 07:43:55;;;;;;;;;2.25;2.25;;;;;;;;5062308;27;46460;-76
2022/09/10 07:46:20;;;;;;;;;5.00;5.00;;;;;;;;5080497;27;45450;-78
2022/09/10 07:48:47;;;;;;;;;3.50;3.50;;;;;;;;5092985;27;45202;-75
2022/09/10 07:51:16;;;;;;;;;3.00;3.00;;;;;;;;5041661;27;45612;-73
2022/09/10 07:53:42;;;;;;;;;4.00;4.00;;;;;;;;5056944;28;45341;-74
2022/09/10 07:56:07;;;;;;;;;11.75;11.75;;;;;;;;5083194;27;45483;-75
2022/09/10 07:58:34;;;;;;;;;3.75;3.75;;;;;;;;5074585;28;45196;-75
2022/09/10 08:01:01;;;;;;;;;4.00;4.00;;;;;;;;5086372;27;45426;-77
2022/09/10 08:03:26;;;;;;;;;6.00;6.00;;;;;;;;5058981;27;46934;-78
2022/09/10 08:05:52;;;;;;;;;5.00;5.00;;;;;;;;5051659;27;45863;-75
2022/09/10 08:08:18;;;;;;;;;3.50;3.50;;;;;;;;5075607;28;45422;-78
2022/09/10 08:10:44;;;;;;;;;4.50;4.50;;;;;;;;5058838;28;45461;-78
2022/09/10 08:13:09;;;;;;;;;4.00;3.00;;;;;;;;5087306;27;46329;-78
2022/09/10 08:15:34;;;;;;;;;4.00;4.00;;;;;;;;5080893;27;45473;-77
2022/09/10 08:18:00;;;;;;;;;4.00;4.00;;;;;;;;5060767;28;45420;-77
2022/09/10 08:20:25;;;;;;;;;4.00;4.00;;;;;;;;5079100;28;45432;-79
2022/09/10 08:22:50;;;;;;;;;3.00;3.00;;;;;;;;5080211;28;45435;-78
2022/09/10 08:25:18;;;;;;;;;5.00;4.50;;;;;;;;5079753;28;45381;-72
2022/09/10 08:27:44;;;;;;;;;3.25;3.25;;;;;;;;5060798;28;45547;-75
2022/09/10 08:30:09;;;;;;;;;4.00;4.00;;;;;;;;5078044;28;45611;-74
2022/09/10 08:32:35;;;;;;;;;4.00;4.00;;;;;;;;5064895;27;46318;-76
2022/09/10 08:35:00;;;;;;;;;4.00;4.00;;;;;;;;5089092;27;45733;-75
2022/09/10 08:37:26;;;;;;;;;4.00;4.00;;;;;;;;5078934;27;45589;-75
2022/09/10 08:39:51;;;;;;;;;2.25;2.25;;;;;;;;5079855;27;45553;-73
2022/09/10 08:42:25;;;;;;;;;2.50;2.50;;;;;;;;5076120;27;46744;-74
2022/09/10 08:44:56;;;;;;;;;3.50;3.50;;;;;;;;5071337;28;45281;-75
2022/09/10 08:47:31;;;;;;;;;3.75;3.75;;;;;;;;5078480;28;45402;-77
2022/09/10 08:50:02;;;;;;;;;2.50;2.50;;;;;;;;5077440;28;45553;-73
2022/09/10 08:52:32;;;;;;;;;2.50;2.50;;;;;;;;5077625;28;46221;-77
2022/09/10 08:55:00;;;;;;;;;4.00;4.00;;;;;;;;5077640;28;45401;-80
2022/09/10 08:57:46;;;;;;;;;2.00;2.00;;;;;;;;5077101;28;45373;-76
2022/09/10 09:00:16;;;;;;;;;3.50;3.50;;;;;;;;5079924;27;45588;-82
2022/09/10 09:02:48;;;;;;;;;5.00;5.00;;;;;;;;5069469;28;46716;-73
2022/09/10 09:05:24;;;;;;;;;4.00;4.00;;;;;;;;5071417;28;46315;-76
2022/09/10 09:07:50;;;;;;;;;5.50;5.50;;;;;;;;5067789;28;45489;-74
2022/09/10 09:10:24;;;;;;;;;2.50;2.50;;;;;;;;5085080;28;45582;-72
2022/09/10 09:12:50;;;;;;;;;4.00;4.00;;;;;;;;5080251;28;46451;-75
2022/09/10 09:15:16;;;;;;;;;5.00;5.00;;;;;;;;5081362;28;45570;-79
2022/09/10 09:17:59;;;;;;;;;3.00;3.00;;;;;;;;5079325;28;45831;-83
2022/09/10 09:20:57;;;;;;;;;3.75;3.75;;;;;;;;5079219;28;45452;-79
2022/09/10 09:23:25;;;;;;;;;3.00;3.00;;;;;;;;5057017;28;46676;-79
2022/09/10 09:25:55;;;;;;;;;3.00;3.00;;;;;;;;5081656;28;45306;-78
2022/09/10 09:28:31;;;;;;;;;5.00;5.00;;;;;;;;5083838;28;45327;-73
2022/09/10 09:30:58;;;;;;;;;3.50;3.50;;;;;;;;5082223;28;45299;-76
2022/09/10 09:33:24;;;;;;;;;6.50;6.50;;;;;;;;5063145;28;47764;-74
2022/09/10 09:35:52;;;;;;;;;5.50;5.50;;;;;;;;5081198;28;45273;-83
2022/09/10 09:38:18;;;;;;;;;4.50;4.50;;;;;;;;5063265;28;45278;-73
2022/09/10 09:40:48;;;;;;;;;3.00;3.00;;;;;;;;5079151;28;45283;-72
2022/09/10 09:43:14;;;;;;;;;4.75;4.75;;;;;;;;5060136;28;47267;-76
2022/09/10 09:45:43;;;;;;;;;4.50;4.50;;;;;;;;5062545;28;45231;-73
2022/09/10 09:48:12;;;;;;;;;5.00;5.00;;;;;;;;5079329;28;45281;-73
2022/09/10 09:50:40;;;;;;;;;5.00;5.00;;;;;;;;5078258;28;45441;-75
2022/09/10 09:53:06;;;;;;;;;6.25;6.25;;;;;;;;5078618;28;45741;-79
2022/09/10 09:55:39;;;;;;;;;5.50;5.50;;;;;;;;5079276;28;45380;-77
2022/09/10 09:58:19;;;;;;;;;3.00;3.00;;;;;;;;5063489;28;45524;-72
2022/09/10 10:00:46;;;;;;;;;6.50;6.50;;;;;;;;5060884;28;45573;-82
2022/09/10 10:03:23;;;;;;;;;4.00;4.00;;;;;;;;5077943;28;45432;-80
2022/09/10 10:05:49;;;;;;;;;7.00;7.00;;;;;;;;5079002;28;45307;-73
2022/09/10 10:08:27;;;;;;;;;4.50;4.50;;;;;;;;5079328;28;45338;-80
2022/09/10 10:10:52;;;;;;;;;5.25;5.25;;;;;;;;5079282;28;45314;-78
2022/09/10 10:13:21;;;;;;;;;5.75;5.25;;;;;;;;5079278;28;46329;-83
2022/09/10 10:15:47;;;;;;;;;4.50;4.50;;;;;;;;5079967;28;45390;-80
2022/09/10 10:18:22;;;;;;;;;6.00;6.00;;;;;;;;5080713;28;45275;-79
2022/09/10 10:20:48;;;;;;;;;5.75;5.75;;;;;;;;5082603;28;45182;-82
2022/09/10 10:23:35;;;;;;;;;6.00;6.00;;;;;;;;5084400;28;45719;-81
2022/09/10 10:26:14;;;;;;;;;6.50;5.75;;;;;;;;5082937;28;45363;-73
2022/09/10 10:28:43;;;;;;;;;6.75;6.75;;;;;;;;5078601;27;45389;-77
2022/09/10 10:31:08;;;;;;;;;5.00;5.00;;;;;;;;5078579;28;45183;-77
2022/09/10 10:33:34;;;;;;;;;6.00;6.00;;;;;;;;5079462;28;45389;-80
2022/09/10 10:36:13;;;;;;;;;8.25;8.25;;;;;;;;5077798;28;45370;-78
2022/09/10 10:38:41;;;;;;;;;7.50;7.50;;;;;;;;5060734;28;45393;-83
2022/09/10 10:41:08;;;;;;;;;9.75;9.75;;;;;;;;5061553;28;45603;-78
2022/09/10 10:43:41;;;;;;;;;10.00;9.00;;;;;;;;5077925;28;45434;-73
2022/09/10 10:46:15;;;;;;;;;7.00;7.00;;;;;;;;5077035;28;45439;-72
2022/09/10 10:48:46;;;;;;;;;5.75;5.75;;;;;;;;5077906;28;45374;-73
2022/09/10 10:51:27;;;;;;;;;5.00;5.00;;;;;;;;5076670;28;45506;-73
2022/09/10 10:54:10;;;;;;;;;5.00;5.00;;;;;;;;5076860;28;46375;-72
2022/09/10 10:56:45;;;;;;;;;6.25;6.25;;;;;;;;5078745;28;45457;-82
2022/09/10 10:59:23;;;;;;;;;5.00;5.00;;;;;;;;5077814;28;45291;-77
2022/09/10 11:02:00;;;;;;;;;6.75;6.75;;;;;;;;5078383;28;45317;-72
2022/09/10 11:04:45;;;;;;;;;8.75;8.75;;;;;;;;5077299;28;45729;-73
2022/09/10 11:07:24;;;;;;;;;10.50;10.50;;;;;;;;5075436;28;45212;-74
2022/09/10 11:09:55;;;;;;;;;6.25;6.25;;;;;;;;5077279;28;45334;-73
2022/09/10 11:12:25;;;;;;;;;4.75;4.75;;;;;;;;5082608;28;45303;-78
2022/09/10 11:14:51;;;;;;;;;5.75;5.75;;;;;;;;5077743;28;45713;-75
2022/09/10 11:17:19;;;;;;;;;4.75;4.75;;;;;;;;5080058;28;45456;-74
2022/09/10 11:20:04;;;;;;;;;5.50;5.50;;;;;;;;5078754;28;45174;-76
2022/09/10 11:22:33;;;;;;;;;9.25;9.25;;;;;;;;5076559;28;45464;-73
2022/09/10 11:25:07;;;;;;;;;9.00;9.00;;;;;;;;5078575;28;46697;-74
2022/09/10 11:27:37;;;;;;;;;6.50;6.50;;;;;;;;5079568;28;45390;-73
2022/09/10 11:30:10;;;;;;;;;6.75;6.75;;;;;;;;5063484;28;45267;-76
2022/09/10 11:32:49;;;;;;;;;8.50;8.50;;;;;;;;5061899;28;45468;-76
2022/09/10 11:35:15;;;;;;;;;10.00;10.00;;;;;;;;5059709;28;47357;-81
2022/09/10 11:37:49;;;;;;;;;10.25;10.25;;;;;;;;5078340;28;45289;-76
2022/09/10 11:40:29;;;;;;;;;9.50;9.50;;;;;;;;5077723;28;45355;-74
2022/09/10 11:42:55;;;;;;;;;7.75;7.75;;;;;;;;5077576;28;45479;-75
2022/09/10 11:45:32;;;;;;;;;56.00;46.75;;;;;;;;5076932;28;45490;-76
2022/09/10 11:48:09;;;;;;;;;23.25;23.25;;;;;;;;5061429;27;45411;-78
2022/09/10 11:50:38;;;;;;;;;9.25;9.25;;;;;;;;5088089;27;45501;-77
2022/09/10 11:53:06;;;;;;;;;20.25;20.25;;;;;;;;5090671;27;45249;-79
2022/09/10 11:55:34;;;;;;;;;7.25;7.25;;;;;;;;5087716;27;46426;-74
2022/09/10 11:58:11;;;;;;;;;9.25;9.25;;;;;;;;5078581;27;45322;-78
2022/09/10 12:00:49;;;;;;;;;6.00;6.00;;;;;;;;5088293;27;45369;-74
2022/09/10 12:03:17;;;;;;;;;13.75;13.00;;;;;;;;5063169;28;45494;-72
2022/09/10 12:05:53;;;;;;;;;9.00;9.00;;;;;;;;5078173;28;45359;-71
2022/09/10 12:08:28;;;;;;;;;10.25;10.25;;;;;;;;5078193;28;45266;-72
2022/09/10 12:11:03;;;;;;;;;11.00;11.00;;;;;;;;5084649;27;45586;-75
2022/09/10 12:13:32;;;;;;;;;7.75;7.75;;;;;;;;5080717;27;45204;-74
2022/09/10 12:15:59;;;;;;;;;8.00;8.00;;;;;;;;5080432;27;47488;-74
2022/09/10 12:18:44;;;;;;;;;9.00;9.00;;;;;;;;5100384;27;45424;-72
2022/09/10 12:21:31;;;;;;;;;4.00;4.00;;;;;;;;5099596;27;45350;-71
2022/09/10 12:23:58;;;;;;;;;7.75;7.75;;;;;;;;5103254;27;45439;-74
2022/09/10 12:26:24;;;;;;;;;6.00;6.00;;;;;;;;5104422;27;46137;-74
2022/09/10 12:28:49;;;;;;;;;8.25;8.25;;;;;;;;5082578;27;45393;-73
2022/09/10 12:31:16;;;;;;;;;6.75;6.75;;;;;;;;5101171;27;45191;-73
2022/09/10 12:33:42;;;;;;;;;6.00;6.00;;;;;;;;5099116;27;45706;-76
2022/09/10 12:36:08;;;;;;;;;10.00;10.00;;;;;;;;5098685;27;46172;-75
2022/09/10 12:38:46;;;;;;;;;7.50;7.50;;;;;;;;5098668;27;45431;-76
2022/09/10 12:41:33;;;;;;;;;7.50;7.50;;;;;;;;5063436;27;45404;-76
2022/09/10 12:43:59;;;;;;;;;17.00;17.00;;;;;;;;5057775;28;45364;-72
2022/09/10 12:46:24;;;;;;;;;5.25;5.25;;;;;;;;5039778;28;47611;-74
2022/09/10 12:48:50;;;;;;;;;7.75;7.75;;;;;;;;5058149;28;45389;-74
2022/09/10 12:51:15;;;;;;;;;2.00;2.00;;;;;;;;5059149;28;45174;-76
2022/09/10 12:53:46;;;;;;;;;9.00;8.50;;;;;;;;5057855;28;45636;-75
2022/09/10 12:56:24;;;;;;;;;9.25;9.25;;;;;;;;5058896;28;46740;-74
2022/09/10 12:59:11;;;;;;;;;6.00;6.00;;;;;;;;5057500;28;45289;-74
2022/09/10 13:01:39;;;;;;;;;8.25;8.25;;;;;;;;5058549;27;45491;-76
2022/09/10 13:04:05;;;;;;;;;8.50;8.50;;;;;;;;5058996;28;45297;-76
2022/09/10 13:06:38;;;;;;;;;4.75;4.75;;;;;;;;5057310;28;46064;-73
2022/09/10 13:09:15;;;;;;;;;5.50;5.50;;;;;;;;5057976;28;45370;-74
2022/09/10 13:11:43;;;;;;;;;4.75;4.75;;;;;;;;5056159;28;45540;-72
2022/09/10 13:14:15;;;;;;;;;6.50;6.50;;;;;;;;5039775;28;45429;-72
2022/09/10 13:16:41;;;;;;;;;4.75;4.75;;;;;;;;5057222;28;45671;-74
2022/09/10 13:19:12;;;;;;;;;5.75;5.75;;;;;;;;5057430;28;45406;-72
2022/09/10 13:21:37;;;;;;;;;3.00;3.00;;;;;;;;5057975;28;45535;-74
2022/09/10 13:24:02;;;;;;;;;8.50;8.50;;;;;;;;5062114;28;45390;-73
2022/09/10 13:26:32;;;;;;;;;5.50;5.50;;;;;;;;5060286;28;45438;-73
2022/09/10 13:29:00;;;;;;;;;4.25;4.25;;;;;;;;5058927;28;45461;-72
2022/09/10 13:31:38;;;;;;;;;9.50;9.50;;;;;;;;5040183;28;45732;-74
2022/09/10 13:34:13;;;;;;;;;4.00;4.00;;;;;;;;5039486;28;45413;-71
2022/09/10 13:36:52;;;;;;;;;2.75;2.75;;;;;;;;5056390;28;45490;-75
2022/09/10 13:39:42;;;;;;;;;4.00;4.00;;;;;;;;5056613;28;45185;-72
2022/09/10 13:42:17;;;;;;;;;3.00;3.00;;;;;;;;5038433;28;45388;-75
2022/09/10 13:44:50;;;;;;;;;8.50;8.50;;;;;;;;5088957;27;45653;-74
2022/09/10 13:47:21;;;;;;;;;2.00;2.00;;;;;;;;5079013;27;47069;-75
2022/09/10 13:49:51;;;;;;;;;2.00;2.00;;;;;;;;5092097;27;45297;-76
2022/09/10 13:52:20;;;;;;;;;1.00;1.00;;;;;;;;5076608;28;45222;-76
2022/09/10 13:54:50;;;;;;;;;1.50;1.50;;;;;;;;5075956;28;45513;-76
2022/09/10 13:57:22;;;;;;;;;1.00;1.00;;;;;;;;5076933;28;46112;-74
2022/09/10 13:59:49;;;;;;;;;3.25;3.25;;;;;;;;5058444;28;45823;-75
2022/09/10 14:02:18;;;;;;;;;4.00;4.00;;;;;;;;5056901;28;45424;-77
2022/09/10 14:04:44;;;;;;;;;4.50;4.50;;;;;;;;5077582;28;45367;-78
2022/09/10 14:07:14;;;;;;;;;2.00;2.00;;;;;;;;5078005;28;45371;-78
2022/09/10 14:09:45;;;;;;;;;5.00;5.00;;;;;;;;5079309;28;45240;-80
2022/09/10 14:12:12;;;;;;;;;3.75;3.75;;;;;;;;5078710;28;45354;-81
2022/09/10 14:14:39;;;;;;;;;3.50;3.50;;;;;;;;5079408;28;45329;-80
2022/09/10 14:17:07;;;;;;;;;4.25;4.25;;;;;;;;5078277;28;45274;-80
2022/09/10 14:19:39;;;;;;;;;3.00;3.00;;;;;;;;5061143;28;45811;-81
2022/09/10 14:22:05;;;;;;;;;3.50;3.50;;;;;;;;5061940;28;45317;-82
2022/09/10 14:24:32;;;;;;;;;4.00;4.00;;;;;;;;5081614;28;45249;-84
2022/09/10 14:27:32;;;;;;;;;3.75;3.75;;;;;;;;5083379;28;45476;-83
2022/09/10 14:30:17;;;;;;;;;0.75;0.75;;;;;;;;5055543;28;45253;-83
2022/09/10 14:32:42;;;;;;;;;1.75;1.75;;;;;;;;5078375;28;45526;-79
2022/09/10 14:35:26;;;;;;;;;2.00;2.00;;;;;;;;5060491;28;45402;-83
2022/09/10 14:37:53;;;;;;;;;4.25;4.25;;;;;;;;5078492;28;46210;-82
2022/09/10 14:40:19;;;;;;;;;2.00;2.00;;;;;;;;5062652;28;45339;-79
2022/09/10 14:42:45;;;;;;;;;0.00;0.00;;;;;;;;5079239;28;45219;-79
2022/09/10 14:45:30;;;;;;;;;3.25;3.25;;;;;;;;5088522;28;45166;-80
2022/09/10 14:47:55;;;;;;;;;5.75;5.75;;;;;;;;5068623;28;47708;-80
2022/09/10 14:50:26;;;;;;;;;5.25;5.25;;;;;;;;5079205;28;45172;-83
2022/09/10 14:52:52;;;;;;;;;7.75;7.00;;;;;;;;5079330;28;45401;-81